Time;durP1;ratioP1;P1;durP2;ratioP2;P2;SDS_P1;SDS_P2;PMS_P1;PMS_P2;Temp;Humidity;BMP_temperature;BMP_pressure;BME280_temperature;BME280_humidity;BME280_pressure;Samples;Min_cycle;Max_cycle;Signal;HPM_P1;HPM_P2
2021/10/11 00:01:45;;;;;;;34.50;17.02;;;;;;;0.35;81.39;100618.92;1779247;80;21152;-66
2021/10/11 00:04:12;;;;;;;34.48;16.32;;;;;;;0.33;81.63;100618.62;1779363;80;20849;-66
2021/10/11 00:06:40;;;;;;;39.33;16.93;;;;;;;0.31;81.64;100613.14;1779138;80;21412;-66
2021/10/11 00:09:07;;;;;;;32.63;16.10;;;;;;;0.28;81.75;100602.25;1779164;80;20935;-68
2021/10/11 00:11:34;;;;;;;32.38;15.08;;;;;;;0.26;81.87;100608.40;1779141;80;21450;-68
2021/10/11 00:14:03;;;;;;;30.72;15.38;;;;;;;0.25;81.87;100611.32;1779222;80;20947;-68
2021/10/11 00:16:29;;;;;;;31.85;14.55;;;;;;;0.22;81.98;100600.97;1779132;80;20892;-69
2021/10/11 00:18:56;;;;;;;34.03;16.62;;;;;;;0.20;82.09;100596.31;1779542;80;21470;-68
2021/10/11 00:21:23;;;;;;;36.63;16.07;;;;;;;0.20;82.26;100603.06;1779204;80;20946;-68
2021/10/11 00:23:50;;;;;;;37.00;16.82;;;;;;;0.19;82.25;100602.23;1779253;80;20880;-68
2021/10/11 00:26:16;;;;;;;41.58;17.30;;;;;;;0.17;82.24;100602.98;1779248;80;21066;-68
2021/10/11 00:28:44;;;;;;;49.45;20.52;;;;;;;0.16;82.27;100604.03;1779110;80;20896;-68
2021/10/11 00:31:11;;;;;;;52.83;19.45;;;;;;;0.16;82.29;100601.33;1779023;80;20856;-68
2021/10/11 00:33:38;;;;;;;56.75;22.02;;;;;;;0.15;82.31;100598.84;1760581;80;21442;-68
2021/10/11 00:36:04;;;;;;;64.90;22.67;;;;;;;0.11;82.24;100598.98;1760401;81;20951;-68
2021/10/11 00:38:32;;;;;;;83.07;28.07;;;;;;;0.09;82.29;100603.78;1760270;81;21010;-68
2021/10/11 00:40:59;;;;;;;87.90;28.90;;;;;;;0.06;82.50;100602.87;1760538;81;20919;-68
2021/10/11 00:43:26;;;;;;;89.28;32.23;;;;;;;0.05;82.53;100598.00;1760320;81;20934;-66
2021/10/11 00:45:53;;;;;;;78.60;27.77;;;;;;;0.03;82.46;100593.87;1760219;81;20935;-66
2021/10/11 00:48:19;;;;;;;74.87;26.48;;;;;;;-0.01;82.57;100593.52;1760322;81;20934;-66
2021/10/11 00:50:47;;;;;;;72.32;24.67;;;;;;;-0.05;82.78;100589.61;1760390;81;21079;-66
2021/10/11 00:53:15;;;;;;;73.95;26.55;;;;;;;-0.07;82.98;100591.17;1760220;81;20927;-67
2021/10/11 00:55:42;;;;;;;72.27;26.17;;;;;;;-0.07;83.11;100588.48;1753277;81;20990;-67
2021/10/11 00:58:09;;;;;;;67.97;25.05;;;;;;;-0.09;83.10;100593.27;1760322;81;20892;-68
2021/10/11 01:00:36;;;;;;;74.65;24.98;;;;;;;-0.09;83.09;100586.52;1760357;81;20990;-67
2021/10/11 01:03:03;;;;;;;73.90;25.15;;;;;;;-0.12;83.14;100584.78;1760247;81;21135;-66
2021/10/11 01:05:29;;;;;;;76.75;27.62;;;;;;;-0.14;83.13;100578.25;1760177;81;21462;-67
2021/10/11 01:07:55;;;;;;;80.80;28.85;;;;;;;-0.16;83.11;100576.30;1760267;81;21054;-67
2021/10/11 01:10:22;;;;;;;83.35;28.10;;;;;;;-0.18;83.17;100571.64;1760208;81;21021;-67
2021/10/11 01:12:49;;;;;;;85.90;27.22;;;;;;;-0.20;83.27;100568.34;1760423;81;21498;-67
2021/10/11 01:15:15;;;;;;;77.40;27.62;;;;;;;-0.21;83.35;100566.69;1760522;81;21546;-67
2021/10/11 01:17:42;;;;;;;82.50;29.85;;;;;;;-0.22;83.39;100563.69;1760257;80;21596;-66
2021/10/11 01:20:10;;;;;;;93.25;30.10;;;;;;;-0.23;83.41;100562.03;1760332;80;20923;-67
2021/10/11 01:22:39;;;;;;;88.10;30.82;;;;;;;-0.24;83.55;100560.91;1760393;81;21467;-68
2021/10/11 01:25:08;;;;;;;82.05;29.55;;;;;;;-0.26;83.51;100557.59;1760681;80;20990;-67
2021/10/11 01:27:36;;;;;;;96.80;30.95;;;;;;;-0.30;83.59;100557.21;1760201;81;21146;-68
2021/10/11 01:30:05;;;;;;;89.75;31.07;;;;;;;-0.33;83.71;100557.65;1760509;81;20982;-67
2021/10/11 01:32:33;;;;;;;85.67;29.42;;;;;;;-0.35;83.84;100555.17;1769590;80;21274;-66
2021/10/11 01:34:59;;;;;;;80.90;28.32;;;;;;;-0.35;83.92;100550.30;1783570;80;21399;-66
2021/10/11 01:37:26;;;;;;;82.47;30.45;;;;;;;-0.35;83.96;100552.47;1783802;80;20892;-66
2021/10/11 01:39:53;;;;;;;70.15;26.10;;;;;;;-0.37;83.96;100542.42;1783573;80;21055;-68
2021/10/11 01:42:19;;;;;;;59.88;24.32;;;;;;;-0.38;84.05;100546.69;1783559;80;20915;-67
2021/10/11 01:44:46;;;;;;;51.88;22.60;;;;;;;-0.39;84.11;100550.44;1783581;80;20938;-67
2021/10/11 01:47:12;;;;;;;52.25;21.05;;;;;;;-0.43;84.26;100543.83;1783905;80;20986;-66
2021/10/11 01:49:39;;;;;;;51.80;20.92;;;;;;;-0.45;84.39;100547.27;1783596;80;20884;-66
2021/10/11 01:52:05;;;;;;;51.33;21.00;;;;;;;-0.49;84.34;100540.66;1783548;80;21054;-66
2021/10/11 01:54:32;;;;;;;51.30;21.62;;;;;;;-0.53;84.45;100544.31;1783363;80;20990;-67
2021/10/11 01:56:58;;;;;;;48.73;18.35;;;;;;;-0.56;84.51;100537.18;1784046;80;20895;-67
2021/10/11 01:59:25;;;;;;;43.30;18.77;;;;;;;-0.59;84.54;100534.43;1783442;80;20943;-67
2021/10/11 02:01:51;;;;;;;41.88;19.27;;;;;;;-0.61;84.63;100535.17;1783497;80;20837;-67
2021/10/11 02:04:18;;;;;;;39.23;17.15;;;;;;;-0.62;84.72;100529.99;1783604;80;21019;-67
2021/10/11 02:06:46;;;;;;;39.38;16.27;;;;;;;-0.63;84.71;100528.34;1783495;80;20939;-67
2021/10/11 02:09:12;;;;;;;39.27;17.10;;;;;;;-0.67;84.72;100523.38;1783367;80;20981;-67
2021/10/11 02:11:39;;;;;;;35.05;17.62;;;;;;;-0.71;84.82;100519.99;1783454;80;20864;-67
2021/10/11 02:14:05;;;;;;;34.78;16.60;;;;;;;-0.72;84.98;100523.73;1783593;80;20958;-67
2021/10/11 02:16:32;;;;;;;42.55;16.90;;;;;;;-0.72;85.09;100516.47;1783563;80;21509;-67
2021/10/11 02:18:58;;;;;;;34.67;16.48;;;;;;;-0.75;85.11;100514.20;1756051;80;20880;-67
2021/10/11 02:21:25;;;;;;;37.20;15.75;;;;;;;-0.74;85.16;100516.38;1783543;80;20899;-68
2021/10/11 02:23:52;;;;;;;43.68;18.35;;;;;;;-0.75;85.14;100512.03;1783441;80;21002;-67
2021/10/11 02:26:18;;;;;;;36.40;17.07;;;;;;;-0.75;85.24;100516.91;1783569;80;20896;-67
2021/10/11 02:28:45;;;;;;;45.60;17.62;;;;;;;-0.75;85.46;100507.98;1783664;80;21104;-68
2021/10/11 02:31:12;;;;;;;41.40;17.80;;;;;;;-0.76;85.46;100504.47;1783682;80;21549;-68
2021/10/11 02:33:39;;;;;;;44.90;17.17;;;;;;;-0.76;85.40;100503.12;1783642;80;20871;-67
2021/10/11 02:36:07;;;;;;;62.93;25.48;;;;;;;-0.80;85.23;100499.20;1783605;80;20832;-65
2021/10/11 02:38:34;;;;;;;58.98;24.52;;;;;;;-0.83;85.35;100494.25;1783808;80;20946;-65
2021/10/11 02:41:01;;;;;;;49.60;22.32;;;;;;;-0.81;85.67;100495.38;1783732;80;21212;-66
2021/10/11 02:43:27;;;;;;;67.40;23.55;;;;;;;-0.81;85.73;100493.51;1783668;80;20813;-66
2021/10/11 02:45:54;;;;;;;78.15;28.40;;;;;;;-0.81;85.65;100490.81;1783902;80;20963;-66
2021/10/11 02:48:21;;;;;;;77.37;26.37;;;;;;;-0.84;85.62;100491.25;1783691;80;20871;-67
2021/10/11 02:50:47;;;;;;;84.80;28.73;;;;;;;-0.85;85.55;100487.42;1783880;80;20860;-68
2021/10/11 02:53:15;;;;;;;105.65;33.65;;;;;;;-0.87;85.58;100489.52;1783826;79;21787;-67
2021/10/11 02:55:42;;;;;;;102.07;34.55;;;;;;;-0.90;85.49;100479.99;1783803;80;21385;-67
2021/10/11 02:58:09;;;;;;;99.05;33.67;;;;;;;-0.91;85.62;100481.03;1783784;80;20855;-67
2021/10/11 03:00:35;;;;;;;102.75;34.13;;;;;;;-0.92;85.66;100475.86;1783638;80;20947;-67
2021/10/11 03:03:02;;;;;;;103.67;32.63;;;;;;;-0.93;85.59;100470.99;1783852;80;21399;-66
2021/10/11 03:05:29;;;;;;;104.95;32.70;;;;;;;-0.94;85.77;100466.64;1783563;80;21147;-66
2021/10/11 03:07:55;;;;;;;98.97;33.65;;;;;;;-0.94;85.83;100459.08;1782302;80;20924;-67
2021/10/11 03:10:21;;;;;;;90.05;31.60;;;;;;;-0.96;85.79;100455.25;1781400;80;20885;-67
2021/10/11 03:12:48;;;;;;;94.85;31.40;;;;;;;-0.99;85.64;100448.95;1777661;80;21054;-68
2021/10/11 03:15:14;;;;;;;84.42;29.70;;;;;;;-1.02;85.64;100449.39;1780532;80;20994;-66
2021/10/11 03:17:41;;;;;;;73.33;28.05;;;;;;;-1.04;85.72;100450.13;1780402;80;21133;-68
2021/10/11 03:20:10;;;;;;;63.33;25.70;;;;;;;-1.07;85.90;100450.04;1781187;80;20995;-68
2021/10/11 03:22:37;;;;;;;68.20;25.37;;;;;;;-1.08;85.96;100452.95;1750735;80;21007;-68
2021/10/11 03:25:05;;;;;;;67.05;26.87;;;;;;;-1.08;86.01;100446.22;1756054;80;20935;-67
2021/10/11 03:27:32;;;;;;;64.32;24.67;;;;;;;-1.08;86.09;100447.05;1782083;80;20980;-68
2021/10/11 03:29:58;;;;;;;58.90;24.75;;;;;;;-1.09;86.01;100440.00;1781156;80;21933;-68
2021/10/11 03:32:25;;;;;;;54.60;21.73;;;;;;;-1.10;85.91;100436.17;1780434;80;20979;-66
2021/10/11 03:34:52;;;;;;;59.03;22.52;;;;;;;-1.11;85.87;100434.52;1780582;80;20939;-67
2021/10/11 03:37:18;;;;;;;53.95;23.92;;;;;;;-1.13;85.90;100427.17;1783864;80;21779;-67
2021/10/11 03:39:45;;;;;;;61.05;25.08;;;;;;;-1.14;86.04;100435.78;1784000;80;20931;-67
2021/10/11 03:42:12;;;;;;;51.80;22.32;;;;;;;-1.15;86.07;100440.05;1783854;80;21459;-67
2021/10/11 03:44:38;;;;;;;61.48;24.52;;;;;;;-1.17;86.18;100442.16;1783897;80;20929;-67
2021/10/11 03:47:05;;;;;;;53.85;21.87;;;;;;;-1.19;86.29;100443.72;1783894;80;20967;-68
2021/10/11 03:49:31;;;;;;;53.10;21.90;;;;;;;-1.20;86.33;100437.20;1783922;80;20892;-67
2021/10/11 03:51:58;;;;;;;51.28;20.55;;;;;;;-1.22;86.35;100441.98;1783973;80;20880;-67
2021/10/11 03:54:24;;;;;;;50.05;20.80;;;;;;;-1.25;86.27;100442.42;1784030;80;21810;-67
2021/10/11 03:56:51;;;;;;;53.58;22.22;;;;;;;-1.28;86.21;100443.67;1783948;80;20900;-67
2021/10/11 03:59:18;;;;;;;66.12;25.05;;;;;;;-1.31;86.16;100440.59;1779100;80;21522;-68
2021/10/11 04:01:44;;;;;;;67.40;25.05;;;;;;;-1.34;86.36;100444.02;1778689;80;21022;-69
2021/10/11 04:04:12;;;;;;;75.85;25.05;;;;;;;-1.34;86.76;100439.98;1779298;80;20913;-66
2021/10/11 04:06:39;;;;;;;68.45;24.95;;;;;;;-1.31;86.86;100439.23;1779042;80;21142;-67
2021/10/11 04:09:06;;;;;;;66.02;25.40;;;;;;;-1.32;86.87;100440.28;1779449;80;20928;-66
2021/10/11 04:11:33;;;;;;;59.88;25.55;;;;;;;-1.35;86.67;100431.59;1779459;80;21014;-66
2021/10/11 04:14:00;;;;;;;58.92;23.52;;;;;;;-1.36;86.61;100428.59;1779312;80;20892;-66
2021/10/11 04:16:27;;;;;;;66.45;26.23;;;;;;;-1.37;86.60;100430.16;1783460;80;20927;-66
2021/10/11 04:18:53;;;;;;;58.73;25.02;;;;;;;-1.38;86.91;100421.25;1782613;80;21815;-67
2021/10/11 04:21:20;;;;;;;74.12;28.85;;;;;;;-1.37;86.90;100426.94;1782917;80;20920;-67
2021/10/11 04:23:47;;;;;;;72.03;26.60;;;;;;;-1.37;86.91;100422.08;1783252;80;20852;-67
2021/10/11 04:26:13;;;;;;;74.20;27.65;;;;;;;-1.37;86.94;100420.73;1783545;80;21446;-66
2021/10/11 04:28:40;;;;;;;58.48;26.68;;;;;;;-1.39;86.86;100414.20;1783548;80;20887;-67
2021/10/11 04:31:08;;;;;;;68.28;27.95;;;;;;;-1.41;86.81;100414.95;1783603;80;21356;-67
2021/10/11 04:33:35;;;;;;;63.13;28.10;;;;;;;-1.45;86.96;100407.52;1786261;80;20938;-66
2021/10/11 04:36:02;;;;;;;67.82;28.35;;;;;;;-1.46;87.14;100409.91;1789936;80;20948;-66
2021/10/11 04:38:29;;;;;;;68.02;28.85;;;;;;;-1.47;87.18;100402.86;1790033;80;20871;-66
2021/10/11 04:40:56;;;;;;;67.85;29.80;;;;;;;-1.46;87.35;100400.48;1789888;80;21457;-66
2021/10/11 04:43:22;;;;;;;68.70;28.20;;;;;;;-1.45;87.36;100400.26;1790015;80;21753;-66
2021/10/11 04:45:49;;;;;;;83.92;31.65;;;;;;;-1.41;87.46;100396.61;1789877;80;20852;-66
2021/10/11 04:48:15;;;;;;;81.65;31.77;;;;;;;-1.37;87.51;100398.66;1790362;80;21494;-64
2021/10/11 04:50:42;;;;;;;71.00;29.72;;;;;;;-1.31;87.56;100394.80;1789760;80;20890;-64
2021/10/11 04:53:09;;;;;;;67.80;26.95;;;;;;;-1.27;87.71;100393.31;1790333;80;20812;-65
2021/10/11 04:55:36;;;;;;;65.37;27.62;;;;;;;-1.22;87.76;100390.27;1789977;80;21056;-65
2021/10/11 04:58:03;;;;;;;74.27;28.45;;;;;;;-1.14;87.77;100385.11;1789939;80;20930;-65
2021/10/11 05:00:31;;;;;;;74.15;29.87;;;;;;;-1.06;87.76;100382.14;1790019;80;20848;-65
2021/10/11 05:02:58;;;;;;;79.32;28.10;;;;;;;-0.98;87.61;100386.44;1789991;80;20860;-65
2021/10/11 05:05:24;;;;;;;99.80;29.77;;;;;;;-0.91;87.82;100386.69;1788963;78;21458;-66
2021/10/11 05:07:51;;;;;;;110.32;30.00;;;;;;;-0.83;87.84;100385.59;1771846;79;21064;-65
2021/10/11 05:10:19;;;;;;;79.85;28.95;;;;;;;-0.74;87.95;100379.70;1779754;80;20911;-66
2021/10/11 05:12:45;;;;;;;77.45;28.42;;;;;;;-0.63;88.01;100380.02;1790071;80;20927;-65
2021/10/11 05:15:13;;;;;;;80.45;30.15;;;;;;;-0.51;87.99;100383.61;1790421;80;20962;-65
2021/10/11 05:17:40;;;;;;;82.75;33.38;;;;;;;-0.40;88.02;100382.34;1764901;80;20888;-65
2021/10/11 05:20:08;;;;;;;82.20;32.78;;;;;;;-0.27;88.12;100385.95;1763998;78;21180;-66
2021/10/11 05:22:37;;;;;;;76.70;33.28;;;;;;;-0.13;88.22;100383.41;1776998;80;20971;-65
2021/10/11 05:25:06;;;;;;;81.80;33.13;;;;;;;-0.02;88.25;100382.66;1790354;80;20907;-66
2021/10/11 05:27:34;;;;;;;89.60;35.08;;;;;;;0.10;88.21;100377.29;1790460;80;20924;-65
2021/10/11 05:30:01;;;;;;;115.88;44.63;;;;;;;0.25;88.25;100380.42;1790544;80;20848;-65
2021/10/11 05:32:28;;;;;;;90.53;38.53;;;;;;;0.43;88.42;100387.66;1790479;80;21549;-65
2021/10/11 05:34:58;;;;;;;148.15;55.15;;;;;;;0.63;88.66;100389.53;1781019;80;21480;-64
2021/10/11 05:37:25;;;;;;;110.55;42.00;;;;;;;0.83;89.00;100396.82;1779852;80;21539;-65
2021/10/11 05:39:52;;;;;;;101.25;43.33;;;;;;;1.03;89.53;100384.88;1780410;80;20929;-65
2021/10/11 05:42:19;;;;;;;88.22;39.58;;;;;;;1.25;89.84;100384.58;1780291;80;21404;-68
2021/10/11 05:44:45;;;;;;;93.47;39.40;;;;;;;1.47;89.85;100397.00;1770278;80;21120;-66
2021/10/11 05:47:12;;;;;;;87.82;36.58;;;;;;;1.68;89.63;100388.30;1755883;80;20882;-66
2021/10/11 05:49:38;;;;;;;81.20;32.08;;;;;;;1.89;89.44;100393.06;1748998;82;20929;-66
2021/10/11 05:52:06;;;;;;;72.15;30.15;;;;;;;2.11;89.10;100396.49;1748964;82;20980;-66
2021/10/11 05:54:32;;;;;;;63.80;25.32;;;;;;;2.32;89.03;100395.81;1749185;82;20885;-66
2021/10/11 05:56:59;;;;;;;54.20;23.62;;;;;;;2.56;88.71;100401.44;1749218;81;21417;-66
2021/10/11 05:59:26;;;;;;;58.05;24.47;;;;;;;2.80;88.24;100395.91;1749065;82;20936;-66
2021/10/11 06:01:52;;;;;;;55.48;23.77;;;;;;;3.03;87.60;100392.22;1749428;82;20934;-67
2021/10/11 06:04:19;;;;;;;41.30;20.48;;;;;;;3.25;86.82;100390.42;1748688;82;20929;-74
2021/10/11 06:06:45;;;;;;;47.75;22.52;;;;;;;3.47;85.81;100393.17;1748947;81;21599;-69
2021/10/11 06:09:13;;;;;;;44.67;21.97;;;;;;;3.67;85.08;100381.27;1749047;81;21196;-72
2021/10/11 06:11:40;;;;;;;43.25;19.30;;;;;;;3.87;84.11;100385.63;1749488;82;20837;-74
2021/10/11 06:14:09;;;;;;;38.35;18.05;;;;;;;4.08;83.85;100389.94;1749145;81;20901;-74
2021/10/11 06:16:37;;;;;;;28.70;15.30;;;;;;;4.26;82.49;100382.83;1749006;81;20957;-70
2021/10/11 06:19:03;;;;;;;39.88;17.73;;;;;;;4.47;81.65;100381.98;1749220;82;21008;-70
2021/10/11 06:21:30;;;;;;;30.95;16.77;;;;;;;4.88;80.38;100385.10;1750329;80;21478;-71
2021/10/11 06:23:57;;;;;;;35.98;16.85;;;;;;;4.88;80.38;100385.10;1766300;80;20981;-72
2021/10/11 06:26:23;;;;;;;33.08;17.15;;;;;;;5.25;79.04;100366.89;1764469;80;21072;-71
2021/10/11 06:28:50;;;;;;;29.12;16.62;;;;;;;5.25;79.04;100366.89;1760603;80;20893;-71
2021/10/11 06:31:16;;;;;;;30.30;14.75;;;;;;;5.47;78.40;100370.05;1755853;80;20933;-70
2021/10/11 06:33:43;;;;;;;31.90;15.90;;;;;;;5.66;77.44;100366.36;1761998;80;21138;-72
2021/10/11 06:36:11;;;;;;;35.50;18.00;;;;;;;5.84;77.05;100360.44;1751919;81;20983;-72
2021/10/11 06:38:37;;;;;;;50.20;21.05;;;;;;;6.06;76.43;100358.40;1738312;81;20989;-72
2021/10/11 06:41:04;;;;;;;40.40;19.20;;;;;;;6.47;74.43;100354.42;1730136;81;20946;-71
2021/10/11 06:43:31;;;;;;;34.30;15.98;;;;;;;7.09;73.27;100346.03;1730245;83;20903;-71
2021/10/11 06:45:57;;;;;;;34.25;17.75;;;;;;;7.83;70.05;100345.34;1730179;82;20969;-70
2021/10/11 06:48:24;;;;;;;37.55;18.40;;;;;;;8.53;67.31;100339.86;1730091;83;22333;-71
2021/10/11 06:50:50;;;;;;;50.80;19.65;;;;;;;9.15;64.91;100330.08;1730259;83;20868;-71
2021/10/11 06:53:17;;;;;;;45.78;20.00;;;;;;;9.64;62.52;100335.34;1729413;83;21014;-71
2021/10/11 06:55:44;;;;;;;45.05;18.45;;;;;;;10.13;61.71;100336.95;1730397;83;20947;-71
2021/10/11 06:58:10;;;;;;;34.03;17.30;;;;;;;10.64;57.81;100337.09;1730319;83;21478;-71
2021/10/11 07:00:37;;;;;;;29.05;16.42;;;;;;;10.97;56.97;100336.59;1730377;82;20974;-71
2021/10/11 07:03:05;;;;;;;34.75;16.87;;;;;;;11.24;55.68;100327.05;1730190;83;21030;-71
2021/10/11 07:05:35;;;;;;;30.88;16.48;;;;;;;11.49;53.38;100324.97;1730429;83;20916;-71
2021/10/11 07:08:08;;;;;;;37.45;19.82;;;;;;;11.68;53.67;100320.18;1730196;83;21073;-71
2021/10/11 07:10:30;;;;;;;37.95;18.10;;;;;;;11.92;52.00;100311.77;1729189;83;21168;-71
2021/10/11 07:12:57;;;;;;;49.18;29.35;;;;;;;12.04;50.88;100308.50;1730101;83;20903;-71
2021/10/11 07:15:23;;;;;;;31.50;17.07;;;;;;;12.17;48.76;100306.27;1730494;82;21006;-71
2021/10/11 07:17:50;;;;;;;36.75;18.50;;;;;;;12.20;49.67;100310.60;1730122;83;21439;-71
2021/10/11 07:20:16;;;;;;;34.63;17.07;;;;;;;12.38;50.18;100307.47;1730511;83;21495;-71
2021/10/11 07:22:44;;;;;;;39.10;18.32;;;;;;;12.79;49.70;100306.51;1746415;81;21513;-70
2021/10/11 07:25:11;;;;;;;43.95;25.20;;;;;;;13.11;48.24;100309.59;1760387;80;20884;-72
2021/10/11 07:27:37;;;;;;;32.42;18.60;;;;;;;13.24;46.38;100313.44;1761297;81;20907;-71
2021/10/11 07:30:05;;;;;;;104.75;62.10;;;;;;;13.39;46.93;100304.74;1761124;81;22340;-71
2021/10/11 07:32:31;;;;;;;88.95;47.75;;;;;;;13.53;45.36;100313.75;1760167;81;20936;-71
2021/10/11 07:34:59;;;;;;;369.20;247.63;;;;;;;13.63;45.37;100305.20;1775594;80;21028;-71
2021/10/11 07:37:25;;;;;;;291.40;170.00;;;;;;;13.71;44.88;100294.77;1783782;80;20962;-72
2021/10/11 07:39:52;;;;;;;72.08;38.83;;;;;;;13.88;45.15;100290.66;1784466;80;20911;-72
2021/10/11 07:42:18;;;;;;;46.63;29.70;;;;;;;14.17;44.68;100288.72;1749603;82;21452;-71
2021/10/11 07:44:45;;;;;;;57.95;33.88;;;;;;;14.44;42.96;100279.95;1750036;82;20952;-70
2021/10/11 07:47:11;;;;;;;62.30;35.50;;;;;;;14.52;42.77;100283.25;1745945;82;21134;-71
2021/10/11 07:49:39;;;;;;;24.30;14.85;;;;;;;14.63;43.25;100275.45;1722748;81;20853;-71
2021/10/11 07:52:05;;;;;;;42.08;18.45;;;;;;;14.91;42.81;100271.79;1731213;82;20932;-71
2021/10/11 07:54:33;;;;;;;27.75;14.28;;;;;;;15.29;42.83;100269.09;1726590;81;21461;-72
2021/10/11 07:57:00;;;;;;;31.48;14.65;;;;;;;15.68;42.24;100263.27;1744112;82;21476;-72
2021/10/11 07:59:28;;;;;;;28.55;12.10;;;;;;;16.12;40.87;100256.94;1723771;82;21078;-71
2021/10/11 08:01:56;;;;;;;21.77;13.32;;;;;;;16.34;40.38;100259.94;1741282;80;20979;-71
2021/10/11 08:04:23;;;;;;;24.95;11.48;;;;;;;16.40;39.26;100260.79;1750065;82;21022;-70
2021/10/11 08:06:50;;;;;;;19.20;9.88;;;;;;;16.47;39.33;100256.09;1749260;82;20857;-71
2021/10/11 08:09:16;;;;;;;19.50;9.65;;;;;;;16.51;38.45;100253.70;1746651;82;20948;-72
2021/10/11 08:11:44;;;;;;;17.70;10.23;;;;;;;16.59;38.74;100245.66;1748798;82;21564;-69
2021/10/11 08:14:11;;;;;;;17.82;8.13;;;;;;;16.74;38.60;100254.19;1746990;82;20896;-69
2021/10/11 08:16:40;;;;;;;20.08;9.80;;;;;;;16.89;38.17;100245.79;1748929;82;20887;-69
2021/10/11 08:19:08;;;;;;;14.43;8.83;;;;;;;17.00;37.72;100243.41;1746876;82;20952;-69
2021/10/11 08:21:35;;;;;;;24.77;11.63;;;;;;;17.08;37.58;100243.89;1748781;82;21514;-75
2021/10/11 08:24:04;;;;;;;15.88;8.93;;;;;;;17.27;37.19;100240.02;1746790;80;21408;-71
2021/10/11 08:26:34;;;;;;;14.95;9.30;;;;;;;17.29;35.93;100236.91;1748969;82;20916;-69
2021/10/11 08:29:02;;;;;;;17.77;10.85;;;;;;;17.06;35.86;100234.53;1749799;82;20936;-71
2021/10/11 08:31:37;;;;;;;20.65;9.63;;;;;;;16.93;35.61;100232.05;1749531;82;20904;-70
2021/10/11 08:34:00;;;;;;;22.95;10.40;;;;;;;16.96;36.38;100228.02;1744950;82;20877;-70
2021/10/11 08:36:26;;;;;;;17.37;10.55;;;;;;;17.04;36.53;100227.70;1732682;82;21043;-70
2021/10/11 08:38:53;;;;;;;15.08;8.53;;;;;;;17.17;37.07;100221.03;1746252;82;20974;-70
2021/10/11 08:41:20;;;;;;;17.05;9.48;;;;;;;17.42;35.39;100214.92;1726882;82;21419;-70
2021/10/11 08:43:47;;;;;;;18.02;9.45;;;;;;;17.48;36.25;100213.55;1757916;80;21633;-70
2021/10/11 08:46:14;;;;;;;14.90;8.50;;;;;;;17.62;35.32;100210.43;1746939;81;20923;-71
2021/10/11 08:48:40;;;;;;;15.68;7.95;;;;;;;17.56;34.46;100214.59;1730442;81;21513;-69
2021/10/11 08:51:08;;;;;;;14.87;8.25;;;;;;;17.43;34.66;100215.16;1752237;80;20903;-70
2021/10/11 08:53:35;;;;;;;19.25;8.63;;;;;;;17.50;35.10;100218.17;1747869;81;20998;-71
2021/10/11 08:56:03;;;;;;;15.90;8.33;;;;;;;17.60;34.43;100209.97;1760848;81;20935;-80
2021/10/11 08:58:47;;;;;;;14.55;8.05;;;;;;;17.69;34.81;100211.50;1760984;81;20884;-70
2021/10/11 09:01:14;;;;;;;16.62;7.65;;;;;;;17.94;35.62;100212.27;1757233;81;21554;-74
2021/10/11 09:03:41;;;;;;;14.95;7.62;;;;;;;18.02;34.17;100204.98;1760601;81;20847;-70
2021/10/11 09:06:10;;;;;;;14.23;6.83;;;;;;;17.97;33.95;100199.66;1760405;81;20911;-72
2021/10/11 09:08:39;;;;;;;15.45;8.20;;;;;;;18.05;33.68;100202.30;1757990;81;21560;-81
2021/10/11 09:11:09;;;;;;;15.88;8.18;;;;;;;18.18;33.69;100205.06;1753969;80;20955;-72
2021/10/11 09:13:44;;;;;;;18.45;9.15;;;;;;;18.27;33.70;100204.35;1760906;81;21125;-71
2021/10/11 09:16:29;;;;;;;122.55;77.27;;;;;;;18.42;32.58;100194.70;1760520;80;21449;-72
2021/10/11 09:18:59;;;;;;;26.75;16.40;;;;;;;18.42;31.80;100197.48;1759411;81;32491;-72
2021/10/11 09:21:33;;;;;;;25.02;15.55;;;;;;;18.38;32.19;100200.73;1748807;81;20995;-72
2021/10/11 09:24:19;;;;;;;15.15;10.28;;;;;;;18.47;31.98;100197.23;1744249;81;21428;-70
2021/10/11 09:26:49;;;;;;;51.55;34.20;;;;;;;18.47;32.41;100197.23;1760640;81;21534;-70
2021/10/11 09:29:31;;;;;;;22.80;12.13;;;;;;;18.44;31.75;100193.77;1760879;80;20975;-71
2021/10/11 09:32:06;;;;;;;13.80;8.55;;;;;;;18.43;32.70;100189.95;1760847;80;21487;-70
2021/10/11 09:34:35;;;;;;;35.52;18.73;;;;;;;18.52;32.21;100186.41;1766824;80;21475;-70
2021/10/11 09:37:13;;;;;;;14.55;8.73;;;;;;;18.50;31.99;100183.17;1787655;80;21395;-71
2021/10/11 09:39:40;;;;;;;13.38;8.88;;;;;;;18.46;32.70;100178.93;1787961;80;21139;-71
2021/10/11 09:42:10;;;;;;;18.73;8.53;;;;;;;18.55;31.64;100179.34;1787605;80;21523;-72
2021/10/11 09:44:37;;;;;;;13.90;6.87;;;;;;;18.65;31.35;100185.81;1787995;80;20944;-72
2021/10/11 09:47:08;;;;;;;16.82;9.03;;;;;;;18.73;30.60;100176.50;1782404;80;21482;-72
2021/10/11 09:49:33;;;;;;;16.70;7.28;;;;;;;18.66;31.14;100172.13;1732695;80;21063;-72
2021/10/11 09:51:59;;;;;;;19.17;7.95;;;;;;;18.64;30.66;100173.07;1785869;78;21487;-71
2021/10/11 09:54:26;;;;;;;14.45;5.92;;;;;;;18.62;30.86;100161.50;1759997;80;20901;-71
2021/10/11 09:56:52;;;;;;;15.98;5.90;;;;;;;18.78;30.93;100155.39;1786192;80;21040;-71
2021/10/11 09:59:19;;;;;;;11.10;6.50;;;;;;;18.99;31.80;100149.59;1786826;80;20976;-72
2021/10/11 10:01:47;;;;;;;14.53;6.90;;;;;;;19.00;29.78;100146.45;1786817;80;20974;-72
2021/10/11 10:04:20;;;;;;;14.43;6.08;;;;;;;18.75;30.49;100143.00;1787528;79;21625;-72
2021/10/11 10:06:47;;;;;;;14.90;6.40;;;;;;;18.65;31.85;100136.56;1787478;80;20995;-72
2021/10/11 10:09:14;;;;;;;13.13;6.62;;;;;;;18.58;30.45;100139.70;1787381;80;20991;-72
2021/10/11 10:11:40;;;;;;;9.78;5.90;;;;;;;18.56;30.71;100139.25;1745279;82;21470;-72
2021/10/11 10:14:20;;;;;;;15.85;8.25;;;;;;;18.55;29.98;100141.22;1750082;82;20900;-72
2021/10/11 10:16:50;;;;;;;11.83;5.62;;;;;;;18.38;29.88;100139.58;1747273;82;21497;-71
2021/10/11 10:19:17;;;;;;;13.68;5.70;;;;;;;18.29;30.16;100128.38;1786799;80;21414;-72
2021/10/11 10:21:45;;;;;;;14.60;7.53;;;;;;;18.28;30.86;100128.16;1787652;80;21501;-72
2021/10/11 10:24:23;;;;;;;13.10;6.60;;;;;;;18.45;30.28;100123.11;1787322;80;21431;-72
2021/10/11 10:27:02;;;;;;;11.80;6.80;;;;;;;18.63;30.40;100124.98;1787810;80;20894;-72
2021/10/11 10:29:28;;;;;;;10.68;6.53;;;;;;;18.75;29.56;100107.44;1760054;80;21195;-72
2021/10/11 10:32:00;;;;;;;12.98;6.97;;;;;;;18.80;29.34;100105.78;1752104;80;20879;-72
2021/10/11 10:34:28;;;;;;;9.13;6.60;;;;;;;18.82;29.50;100100.67;1784909;79;20966;-72
2021/10/11 10:37:10;;;;;;;15.60;7.25;;;;;;;18.86;30.28;100097.40;1784188;80;20990;-72
2021/10/11 10:39:52;;;;;;;14.05;7.58;;;;;;;19.01;29.75;100090.23;1784160;80;20931;-72
2021/10/11 10:42:27;;;;;;;11.70;7.25;;;;;;;19.12;29.64;100082.34;1784252;80;21505;-73
2021/10/11 10:44:56;;;;;;;14.07;6.67;;;;;;;19.20;29.81;100080.55;1784161;80;20915;-72
2021/10/11 10:47:38;;;;;;;13.15;6.40;;;;;;;19.32;28.94;100065.72;1784021;79;20980;-73
2021/10/11 10:50:21;;;;;;;12.60;6.33;;;;;;;19.42;28.87;100063.18;1784234;80;21530;-72
2021/10/11 10:52:49;;;;;;;15.15;6.97;;;;;;;19.72;28.52;100064.86;1784490;80;20912;-72
2021/10/11 10:55:16;;;;;;;15.50;7.10;;;;;;;19.69;28.16;100063.39;1784209;80;21171;-72
2021/10/11 10:57:43;;;;;;;9.15;6.20;;;;;;;19.42;28.65;100060.39;1784211;80;20995;-72
2021/10/11 11:00:14;;;;;;;12.58;6.10;;;;;;;19.21;28.52;100049.34;1784023;79;20920;-72
2021/10/11 11:02:50;;;;;;;10.73;6.60;;;;;;;19.11;29.18;100054.29;1784577;80;20947;-72
2021/10/11 11:05:18;;;;;;;10.98;6.45;;;;;;;19.05;28.75;100046.02;1784090;79;20971;-73
2021/10/11 11:07:47;;;;;;;15.98;6.25;;;;;;;19.11;29.99;100045.94;1784257;80;21711;-73
2021/10/11 11:10:17;;;;;;;12.33;6.22;;;;;;;19.43;30.48;100041.72;1783706;80;20946;-73
2021/10/11 11:12:54;;;;;;;10.08;5.97;;;;;;;19.77;28.38;100037.30;1784390;80;20968;-73
2021/10/11 11:15:38;;;;;;;12.03;5.47;;;;;;;19.89;27.94;100037.16;1784263;80;20947;-72